Time;durP1;ratioP1;P1;durP2;ratioP2;P2;SDS_P1;SDS_P2;PMS_P1;PMS_P2;Temp;Humidity;BMP_temperature;BMP_pressure;BME280_temperature;BME280_humidity;BME280_pressure;Samples;Min_cycle;Max_cycle;Signal;HPM_P1;HPM_P2
2023/03/28 00:00:29;;;;;;;8.43;2.20;;;;;;;4.02;68.42;100830.69;5029366;28;20135;-84
2023/03/28 00:02:56;;;;;;;6.85;2.03;;;;;;;3.94;68.98;100833.66;5040726;28;20574;-85
2023/03/28 00:05:23;;;;;;;8.30;1.83;;;;;;;3.90;69.35;100842.63;5040869;28;20068;-84
2023/03/28 00:07:50;;;;;;;9.73;2.20;;;;;;;3.95;68.74;100845.03;5004396;28;20055;-85
2023/03/28 00:10:17;;;;;;;6.43;2.78;;;;;;;3.86;69.65;100846.28;4988598;28;20049;-85
2023/03/28 00:12:44;;;;;;;3.35;1.73;;;;;;;3.86;69.12;100843.66;4993345;28;20057;-85
2023/03/28 00:15:11;;;;;;;6.63;1.90;;;;;;;3.87;69.17;100853.25;5015217;28;20068;-85
2023/03/28 00:17:40;;;;;;;6.13;2.05;;;;;;;3.80;69.88;100857.06;5004090;28;20510;-85
2023/03/28 00:20:09;;;;;;;6.97;1.95;;;;;;;3.79;70.16;100850.97;5018186;28;20241;-84
2023/03/28 00:22:37;;;;;;;6.80;1.73;;;;;;;3.75;70.33;100862.53;4971234;28;20045;-84
2023/03/28 00:25:05;;;;;;;9.45;1.90;;;;;;;3.69;70.42;100860.19;4999452;28;20053;-84
2023/03/28 00:27:33;;;;;;;6.28;1.88;;;;;;;3.71;70.63;100858.31;4979878;28;20503;-85
2023/03/28 00:30:04;;;;;;;10.32;1.90;;;;;;;3.71;70.44;100855.69;5037605;28;20435;-85
2023/03/28 00:32:30;;;;;;;5.55;1.83;;;;;;;3.73;70.40;100868.78;4982558;28;20486;-85
2023/03/28 00:34:57;;;;;;;11.35;3.25;;;;;;;3.65;70.60;100874.34;4984183;28;20067;-85
2023/03/28 00:37:24;;;;;;;3.03;1.52;;;;;;;3.64;70.04;100876.13;5029095;28;20119;-85
2023/03/28 00:39:52;;;;;;;5.57;1.75;;;;;;;3.65;70.71;100874.34;5022000;28;20044;-85
2023/03/28 00:42:21;;;;;;;10.07;2.10;;;;;;;3.58;71.11;100879.00;5020902;28;20053;-85
2023/03/28 00:44:50;;;;;;;4.53;1.70;;;;;;;3.58;70.76;100880.78;5001601;28;20492;-85
2023/03/28 00:47:26;;;;;;;7.55;2.00;;;;;;;3.64;70.08;100883.16;5019893;28;20883;-85
2023/03/28 00:49:59;;;;;;;5.97;2.42;;;;;;;3.54;70.77;100885.31;4997135;28;20117;-84
2023/03/28 00:52:30;;;;;;;10.88;2.30;;;;;;;3.54;71.24;100882.69;4993188;28;20405;-85
2023/03/28 00:54:57;;;;;;;8.32;2.00;;;;;;;3.59;71.15;100875.47;5001247;28;20064;-85
2023/03/28 00:57:25;;;;;;;8.63;2.13;;;;;;;3.54;71.33;100882.69;5004789;28;20053;-85
2023/03/28 00:59:52;;;;;;;4.35;2.03;;;;;;;3.52;71.35;100875.81;5016644;28;20489;-85
2023/03/28 01:02:19;;;;;;;7.63;2.40;;;;;;;3.50;71.55;100875.84;4990303;28;20519;-85
2023/03/28 01:04:56;;;;;;;6.28;1.98;;;;;;;3.46;71.23;100880.41;4980439;28;20128;-85
2023/03/28 01:07:24;;;;;;;6.20;2.13;;;;;;;3.51;71.25;100884.56;5004403;28;20049;-85
2023/03/28 01:09:51;;;;;;;7.57;2.78;;;;;;;3.49;71.32;100887.28;4988331;28;20053;-85
2023/03/28 01:12:18;;;;;;;9.32;2.90;;;;;;;3.48;71.00;100881.16;5006558;28;20132;-85
2023/03/28 01:14:46;;;;;;;9.05;2.47;;;;;;;3.44;70.97;100887.47;4990406;28;20045;-85
2023/03/28 01:17:14;;;;;;;6.40;2.95;;;;;;;3.43;71.40;100891.00;4991558;28;20666;-85
2023/03/28 01:19:57;;;;;;;6.45;2.67;;;;;;;3.30;71.79;100889.81;5022488;28;20041;-85
2023/03/28 01:22:35;;;;;;;6.13;2.38;;;;;;;3.25;72.15;100887.38;4960970;28;20038;-85
2023/03/28 01:25:19;;;;;;;8.05;2.47;;;;;;;3.29;71.88;100887.28;4943369;28;20057;-86
2023/03/28 01:27:50;;;;;;;7.28;2.22;;;;;;;3.31;72.05;100888.03;4945540;28;20050;-86
2023/03/28 01:31:05;;;;;;;7.45;2.42;;;;;;;3.18;72.26;100893.81;4946821;28;20058;-86
2023/03/28 01:34:05;;;;;;;10.82;2.10;;;;;;;3.16;72.78;100894.78;4958415;28;21535;-86
2023/03/28 01:36:57;;;;;;;4.63;2.17;;;;;;;3.15;72.65;100893.91;4979240;28;20493;-85
2023/03/28 01:39:51;;;;;;;5.32;2.53;;;;;;;3.14;72.64;100896.63;4939955;28;20053;-86
2023/03/28 01:42:51;;;;;;;3.80;2.20;;;;;;;3.06;72.87;100898.72;4938791;28;20054;-85
2023/03/28 01:45:25;;;;;;;7.07;2.30;;;;;;;3.04;73.09;100896.97;4939047;28;20053;-85
2023/03/28 01:48:11;;;;;;;8.68;2.10;;;;;;;2.97;72.61;100899.91;4985909;28;20072;-85
2023/03/28 01:50:46;;;;;;;4.65;1.92;;;;;;;3.01;72.50;100899.72;4948605;28;20042;-85
2023/03/28 01:53:29;;;;;;;7.45;2.38;;;;;;;2.95;72.58;100894.75;4961094;28;20181;-85
2023/03/28 01:56:41;;;;;;;7.25;1.85;;;;;;;2.99;72.53;100893.69;4963788;28;20358;-85
2023/03/28 01:59:46;;;;;;;2.88;2.35;;;;;;;2.89;72.50;100902.00;4942858;28;20070;-85
2023/03/28 02:02:48;;;;;;;5.97;1.98;;;;;;;2.93;72.67;100908.84;4967294;28;20121;-85
2023/03/28 02:05:31;;;;;;;4.65;1.80;;;;;;;2.97;72.68;100907.78;4970779;28;20469;-85
2023/03/28 02:07:59;;;;;;;8.95;2.30;;;;;;;3.06;72.00;100904.81;4972318;28;20053;-86
2023/03/28 02:10:52;;;;;;;;;;;;;;;2.86;72.85;100902.13;4960001;28;20046;-85
2023/03/28 02:13:49;;;;;;;8.90;1.98;;;;;;;2.81;72.89;100903.13;5024266;28;19932;-86
2023/03/28 02:16:37;;;;;;;5.97;2.05;;;;;;;2.90;73.19;100901.06;5005137;28;20057;-85
2023/03/28 02:19:23;;;;;;;5.72;1.80;;;;;;;2.90;73.16;100899.31;4974085;28;20057;-85
2023/03/28 02:22:35;;;;;;;10.13;2.60;;;;;;;2.77;73.30;100904.19;4960613;28;20056;-85
2023/03/28 02:25:30;;;;;;;7.20;2.33;;;;;;;2.91;72.97;100889.69;4979609;28;20103;-86
2023/03/28 02:28:16;;;;;;;8.00;2.13;;;;;;;2.88;73.07;100900.28;5051092;28;20619;-85
2023/03/28 02:31:03;;;;;;;6.22;2.35;;;;;;;2.89;72.37;100896.75;4968460;28;20061;-85
2023/03/28 02:33:36;;;;;;;8.48;3.08;;;;;;;2.94;71.92;100907.91;5006149;28;20050;-85
2023/03/28 02:36:30;;;;;;;3.90;2.22;;;;;;;2.91;71.70;100908.03;5017074;28;20046;-86
2023/03/28 02:39:40;;;;;;;10.45;2.75;;;;;;;2.77;72.69;100912.06;4966979;28;20147;-85
2023/03/28 02:42:44;;;;;;;6.55;2.63;;;;;;;2.83;72.07;100914.44;4997330;28;20045;-86
2023/03/28 02:45:16;;;;;;;7.57;2.58;;;;;;;2.93;71.76;100908.84;5050070;28;20037;-86
2023/03/28 02:48:08;;;;;;;8.52;2.53;;;;;;;2.87;71.57;100915.16;4969872;28;20046;-85
2023/03/28 02:51:13;;;;;;;4.43;2.30;;;;;;;2.76;72.04;100910.34;4969168;28;20061;-86
2023/03/28 02:54:03;;;;;;;4.88;2.60;;;;;;;2.77;72.05;100919.94;4963723;28;20050;-85
2023/03/28 02:56:49;;;;;;;11.23;2.55;;;;;;;2.85;71.97;100919.63;4934880;28;20514;-88
2023/03/28 02:59:38;;;;;;;5.90;2.30;;;;;;;2.81;72.18;100921.50;4917502;28;20603;-88
2023/03/28 03:02:05;;;;;;;9.02;2.40;;;;;;;2.78;72.73;100926.03;4978383;28;20442;-87
2023/03/28 03:04:32;;;;;;;11.23;2.80;;;;;;;2.76;72.92;100928.69;4954147;28;20053;-88
2023/03/28 03:07:02;;;;;;;7.35;2.90;;;;;;;2.76;73.00;100927.84;4958709;28;20173;-88
2023/03/28 03:09:32;;;;;;;7.10;2.65;;;;;;;2.67;73.07;100926.44;4927138;28;20637;-88
2023/03/28 03:11:58;;;;;;;8.07;2.38;;;;;;;2.70;72.91;100918.47;4930134;28;20589;-88
2023/03/28 03:14:26;;;;;;;10.70;2.63;;;;;;;2.70;72.75;100922.84;4957981;28;20055;-88
2023/03/28 03:16:56;;;;;;;8.82;2.75;;;;;;;2.70;72.83;100923.69;4999173;28;20132;-88
2023/03/28 03:19:23;;;;;;;6.50;2.28;;;;;;;2.67;72.98;100923.81;4964887;28;20046;-88
2023/03/28 03:21:50;;;;;;;8.02;2.75;;;;;;;2.74;72.87;100927.91;4930145;28;20046;-88
2023/03/28 03:24:20;;;;;;;11.48;2.97;;;;;;;2.72;73.08;100927.13;4944655;28;20851;-87
2023/03/28 03:26:47;;;;;;;6.00;2.60;;;;;;;2.67;73.18;100923.81;4965229;28;20056;-88
2023/03/28 03:29:15;;;;;;;9.20;2.75;;;;;;;2.66;73.31;100919.47;4990562;28;20107;-88
2023/03/28 03:31:43;;;;;;;8.65;2.75;;;;;;;2.70;73.05;100925.47;5002338;28;20061;-88
2023/03/28 03:34:32;;;;;;;11.38;3.25;;;;;;;2.61;73.62;100922.25;5005942;28;20481;-86
2023/03/28 03:37:01;;;;;;;11.77;3.17;;;;;;;2.65;73.43;100924.78;5021604;28;20087;-86
2023/03/28 03:39:28;;;;;;;8.32;3.28;;;;;;;2.59;74.02;100923.25;4995816;28;20061;-88
2023/03/28 03:41:55;;;;;;;13.18;3.65;;;;;;;2.59;74.10;100929.31;5013371;28;20057;-88
2023/03/28 03:44:22;;;;;;;9.40;2.88;;;;;;;2.55;73.88;100924.28;5031014;28;20077;-88
2023/03/28 03:46:50;;;;;;;13.18;3.42;;;;;;;2.57;73.60;100919.81;4987553;28;20038;-87
2023/03/28 03:49:16;;;;;;;7.45;2.88;;;;;;;2.58;73.36;100925.00;5022263;28;20147;-89
2023/03/28 03:51:44;;;;;;;7.53;3.50;;;;;;;2.60;73.72;100920.56;5008203;28;20038;-88
2023/03/28 03:54:15;;;;;;;7.85;2.97;;;;;;;2.62;73.84;100920.53;5005698;28;20424;-88
2023/03/28 03:56:44;;;;;;;10.82;2.83;;;;;;;2.64;73.78;100918.66;5018767;28;20092;-87
2023/03/28 03:59:11;;;;;;;7.90;2.92;;;;;;;2.62;73.56;100931.00;5018829;28;20073;-88
2023/03/28 04:01:40;;;;;;;6.68;2.60;;;;;;;2.65;73.71;100930.03;5008972;28;20049;-88
2023/03/28 04:04:26;;;;;;;6.82;2.83;;;;;;;2.64;73.78;100929.16;4961601;28;20041;-88
2023/03/28 04:07:02;;;;;;;9.57;3.00;;;;;;;2.66;73.49;100926.50;4972611;28;20418;-89
2023/03/28 04:09:30;;;;;;;8.35;2.88;;;;;;;2.67;73.74;100936.06;4985750;28;20432;-88
2023/03/28 04:12:00;;;;;;;14.15;5.03;;;;;;;2.65;74.07;100932.66;5021936;28;20049;-88
2023/03/28 04:14:29;;;;;;;7.68;2.92;;;;;;;2.56;74.31;100931.22;5006165;28;20049;-88
2023/03/28 04:17:22;;;;;;;11.75;3.45;;;;;;;2.49;73.96;100937.59;4992198;28;20080;-89
2023/03/28 04:19:49;;;;;;;10.88;3.95;;;;;;;2.44;73.76;100939.53;5010826;28;20444;-89
2023/03/28 04:22:17;;;;;;;12.80;4.45;;;;;;;2.42;74.17;100937.00;4955075;28;20049;-89
2023/03/28 04:24:52;;;;;;;7.78;3.80;;;;;;;2.36;74.60;100940.69;4975830;28;20038;-88
2023/03/28 04:27:33;;;;;;;9.07;3.05;;;;;;;2.38;75.02;100951.13;5013946;28;20041;-88
2023/03/28 04:30:02;;;;;;;12.57;4.13;;;;;;;2.33;74.97;100948.66;5012574;28;20460;-89
2023/03/28 04:32:53;;;;;;;6.65;2.95;;;;;;;2.34;75.05;100950.38;5004583;28;20511;-88
2023/03/28 04:35:25;;;;;;;12.35;3.53;;;;;;;2.32;74.96;100948.72;5028177;28;20054;-89
2023/03/28 04:37:59;;;;;;;10.73;4.47;;;;;;;2.23;75.37;100943.81;4996250;28;20049;-89
2023/03/28 04:40:26;;;;;;;8.38;3.50;;;;;;;2.30;75.03;100947.94;5001434;28;20507;-88
2023/03/28 04:43:12;;;;;;;10.63;3.35;;;;;;;2.37;75.05;100955.50;5001295;28;20049;-84
2023/03/28 04:45:46;;;;;;;8.38;3.22;;;;;;;2.33;75.29;100958.28;4984775;28;20069;-84
2023/03/28 04:48:15;;;;;;;13.48;3.30;;;;;;;2.29;75.29;100962.81;5020786;28;20045;-84
2023/03/28 04:50:42;;;;;;;8.20;2.97;;;;;;;2.24;75.37;100958.59;5005179;28;20148;-83
2023/03/28 04:53:12;;;;;;;8.90;3.90;;;;;;;2.22;75.70;100963.06;5007966;28;20042;-84
2023/03/28 04:55:56;;;;;;;9.60;4.43;;;;;;;2.24;75.56;100962.13;5003542;28;20132;-84
2023/03/28 04:58:25;;;;;;;7.35;3.45;;;;;;;2.21;75.91;100964.81;5001375;28;20037;-85
2023/03/28 05:00:53;;;;;;;7.50;3.80;;;;;;;2.17;75.72;100974.56;4986759;28;20065;-84
2023/03/28 05:03:42;;;;;;;7.68;3.58;;;;;;;2.03;75.34;100970.72;4995889;28;20048;-84
2023/03/28 05:06:10;;;;;;;6.30;3.83;;;;;;;2.04;75.97;100977.69;5020305;28;20050;-85
2023/03/28 05:08:37;;;;;;;6.00;3.58;;;;;;;2.08;75.73;100974.88;5037203;28;20103;-85
2023/03/28 05:11:04;;;;;;;11.48;3.72;;;;;;;2.07;75.47;100969.72;5018580;28;20128;-85
2023/03/28 05:13:32;;;;;;;10.25;3.63;;;;;;;2.09;75.45;100976.59;5022519;28;20408;-85
2023/03/28 05:16:07;;;;;;;5.93;3.80;;;;;;;2.11;76.00;100973.91;5023873;28;20497;-85
2023/03/28 05:19:09;;;;;;;14.75;3.85;;;;;;;2.05;75.61;100985.47;5034298;28;20033;-84
2023/03/28 05:21:58;;;;;;;6.53;3.75;;;;;;;1.98;75.89;100986.59;5034844;28;20107;-84
2023/03/28 05:24:25;;;;;;;8.23;4.28;;;;;;;2.02;75.78;100992.59;4996044;28;20054;-84
2023/03/28 05:26:53;;;;;;;9.35;5.38;;;;;;;1.94;76.02;100993.72;4995346;28;20050;-84
2023/03/28 05:29:22;;;;;;;7.65;4.40;;;;;;;2.01;75.90;101001.34;4988333;28;20449;-85
2023/03/28 05:31:50;;;;;;;8.00;5.53;;;;;;;2.00;76.32;101010.13;4996075;28;20515;-84
2023/03/28 05:34:28;;;;;;;10.73;5.20;;;;;;;2.01;76.65;101012.69;5035191;28;20404;-84
2023/03/28 05:36:56;;;;;;;8.75;5.82;;;;;;;2.00;76.27;101017.97;5020854;28;20068;-84
2023/03/28 05:39:35;;;;;;;17.40;4.93;;;;;;;2.03;76.56;101023.97;4953175;28;20047;-84
2023/03/28 05:42:04;;;;;;;10.68;4.97;;;;;;;2.06;76.46;101025.63;4978513;28;20050;-85
2023/03/28 05:44:34;;;;;;;10.90;4.90;;;;;;;2.05;76.58;101027.38;5001843;28;20128;-85
2023/03/28 05:47:35;;;;;;;11.43;4.97;;;;;;;2.07;76.82;101027.34;4933158;28;20425;-85
2023/03/28 05:50:02;;;;;;;15.90;6.65;;;;;;;2.11;76.94;101035.06;5003873;28;20038;-85
2023/03/28 05:52:29;;;;;;;11.82;5.78;;;;;;;2.27;76.62;101038.00;5021124;28;20046;-84
2023/03/28 05:54:56;;;;;;;14.77;6.40;;;;;;;2.29;75.88;101038.81;5027076;28;20069;-84
2023/03/28 05:57:24;;;;;;;13.40;6.30;;;;;;;2.32;76.24;101037.84;5002624;28;20408;-85
2023/03/28 05:59:52;;;;;;;15.88;6.22;;;;;;;2.34;76.30;101036.88;5023955;28;20048;-84
2023/03/28 06:02:21;;;;;;;17.10;6.18;;;;;;;2.36;76.02;101042.91;5021591;28;20095;-85
2023/03/28 06:04:52;;;;;;;17.48;7.63;;;;;;;2.33;75.97;101044.78;5010004;28;20488;-85
2023/03/28 06:07:20;;;;;;;13.80;7.35;;;;;;;2.34;76.52;101049.09;5018473;28;20107;-84
2023/03/28 06:10:01;;;;;;;13.63;7.25;;;;;;;2.43;76.71;101051.41;5015294;28;20768;-84
2023/03/28 06:12:30;;;;;;;11.40;6.63;;;;;;;2.51;76.23;101054.63;5011572;28;20049;-84
2023/03/28 06:14:59;;;;;;;12.98;6.70;;;;;;;2.58;76.17;101056.13;5028340;28;20046;-85
2023/03/28 06:17:33;;;;;;;16.63;7.03;;;;;;;2.63;75.82;101065.59;5032409;28;20059;-84
2023/03/28 06:20:00;;;;;;;20.73;7.07;;;;;;;2.63;75.86;101062.97;5021962;28;20065;-84
2023/03/28 06:22:28;;;;;;;16.92;7.13;;;;;;;2.61;75.52;101063.03;5007006;28;20045;-84
2023/03/28 06:24:59;;;;;;;14.73;6.78;;;;;;;2.68;75.87;101066.28;5010455;28;20132;-85
2023/03/28 06:27:30;;;;;;;19.98;7.38;;;;;;;2.73;75.77;101067.81;4991492;28;20056;-84
2023/03/28 06:29:58;;;;;;;15.48;6.35;;;;;;;2.72;75.93;101067.88;5000010;28;20046;-83
2023/03/28 06:32:26;;;;;;;17.48;7.30;;;;;;;2.78;75.95;101063.28;5033809;28;20073;-82
2023/03/28 06:34:53;;;;;;;15.13;7.00;;;;;;;2.92;75.66;101062.75;5008009;28;20050;-83
2023/03/28 06:37:22;;;;;;;18.00;7.72;;;;;;;2.88;76.29;101060.31;5018275;28;20424;-83
2023/03/28 06:40:09;;;;;;;17.88;7.18;;;;;;;3.00;75.80;101067.72;4971152;28;20054;-83
2023/03/28 06:42:37;;;;;;;20.15;7.50;;;;;;;3.07;75.11;101074.44;4984566;28;20049;-83
2023/03/28 06:45:19;;;;;;;13.93;7.50;;;;;;;3.10;75.01;101068.22;5014552;28;20378;-82
2023/03/28 06:48:02;;;;;;;19.52;7.03;;;;;;;3.15;74.62;101068.91;5014640;28;20053;-83
2023/03/28 06:50:51;;;;;;;13.85;6.10;;;;;;;3.10;74.38;101070.84;5014527;28;20397;-83
2023/03/28 06:53:20;;;;;;;11.35;6.28;;;;;;;3.13;74.24;101078.59;5001566;28;20489;-83
2023/03/28 06:55:51;;;;;;;11.32;5.28;;;;;;;3.15;74.38;101076.78;5007063;28;20829;-83
2023/03/28 06:58:19;;;;;;;11.02;6.43;;;;;;;3.07;73.37;101078.84;4984384;28;20045;-83
2023/03/28 07:01:02;;;;;;;10.68;5.70;;;;;;;3.05;73.68;101078.88;5004130;28;20626;-83
2023/03/28 07:03:58;;;;;;;14.60;5.57;;;;;;;3.21;73.66;101092.31;4939622;28;20049;-83
2023/03/28 07:06:26;;;;;;;16.73;6.15;;;;;;;3.14;73.13;101091.69;4981807;28;20447;-83
2023/03/28 07:08:55;;;;;;;15.05;6.05;;;;;;;3.11;73.23;101086.56;4999538;28;20138;-83
2023/03/28 07:11:31;;;;;;;14.95;7.20;;;;;;;3.12;73.62;101088.25;4992802;28;20852;-83
2023/03/28 07:13:58;;;;;;;21.92;7.50;;;;;;;3.18;73.59;101088.03;5005673;28;20123;-82
2023/03/28 07:16:25;;;;;;;14.93;7.13;;;;;;;3.38;73.11;101081.16;5020553;28;20052;-84
2023/03/28 07:18:51;;;;;;;23.17;6.05;;;;;;;3.47;72.90;101083.44;5029638;28;20045;-83
2023/03/28 07:21:24;;;;;;;12.13;6.37;;;;;;;3.38;72.96;101087.25;5022406;28;20424;-83
2023/03/28 07:23:54;;;;;;;16.27;6.40;;;;;;;3.54;72.92;101090.16;4982545;28;20049;-83
2023/03/28 07:26:26;;;;;;;14.63;6.50;;;;;;;3.67;73.11;101093.16;4973911;28;20053;-83
2023/03/28 07:28:54;;;;;;;14.30;5.60;;;;;;;3.72;72.69;101080.69;4984987;28;20104;-83
2023/03/28 07:31:21;;;;;;;19.90;6.88;;;;;;;3.75;72.25;101080.56;4986991;28;20053;-82
2023/03/28 07:33:49;;;;;;;10.60;4.85;;;;;;;3.76;72.02;101086.66;4996024;28;20432;-82
2023/03/28 07:36:19;;;;;;;13.00;5.35;;;;;;;3.76;72.40;101091.94;4990314;28;20054;-82
2023/03/28 07:38:50;;;;;;;10.77;4.80;;;;;;;3.78;72.39;101085.69;4999631;28;20738;-82
2023/03/28 07:41:21;;;;;;;14.57;6.00;;;;;;;3.83;72.48;101083.75;5021162;28;20053;-83
2023/03/28 07:43:48;;;;;;;10.77;5.95;;;;;;;3.89;72.98;101091.38;4990251;28;20120;-83
2023/03/28 07:46:15;;;;;;;10.13;5.93;;;;;;;3.86;73.14;101088.84;5032870;28;20084;-82
2023/03/28 07:48:42;;;;;;;17.67;5.85;;;;;;;3.98;72.51;101092.78;5001428;28;20045;-82
2023/03/28 07:51:10;;;;;;;10.63;5.25;;;;;;;4.01;72.09;101090.00;4990449;28;20382;-82
2023/03/28 07:53:44;;;;;;;15.70;5.10;;;;;;;4.02;72.63;101090.84;5012806;28;20128;-84
2023/03/28 07:56:11;;;;;;;11.93;5.60;;;;;;;4.07;72.39;101088.91;5004934;28;20111;-85
2023/03/28 07:59:14;;;;;;;11.20;4.95;;;;;;;4.07;71.75;101083.63;4904504;28;20050;-84
2023/03/28 08:01:44;;;;;;;9.48;4.53;;;;;;;4.09;71.92;101085.28;5016924;28;20108;-84
2023/03/28 08:04:12;;;;;;;10.55;4.18;;;;;;;4.16;71.31;101088.53;4992086;28;20056;-84
2023/03/28 08:07:11;;;;;;;8.70;4.28;;;;;;;4.18;71.24;101094.59;4923391;28;20061;-85
2023/03/28 08:09:41;;;;;;;13.88;5.13;;;;;;;4.21;71.54;101094.44;4986928;28;20500;-85
2023/03/28 08:12:20;;;;;;;13.93;4.30;;;;;;;4.28;71.20;101095.06;4997958;28;20045;-85
2023/03/28 08:14:47;;;;;;;15.13;4.30;;;;;;;4.31;70.91;101100.19;5003577;28;20080;-85
2023/03/28 08:17:18;;;;;;;18.10;4.05;;;;;;;4.35;70.69;101107.88;4986266;28;20111;-85
2023/03/28 08:19:45;;;;;;;18.92;4.43;;;;;;;4.39;70.68;101105.97;5005508;28;20041;-85
2023/03/28 08:22:12;;;;;;;10.75;3.38;;;;;;;4.48;70.84;101110.00;4976307;28;20121;-85
2023/03/28 08:24:46;;;;;;;10.00;3.58;;;;;;;4.43;70.19;101112.81;5009975;28;20513;-86
2023/03/28 08:27:18;;;;;;;8.52;3.42;;;;;;;4.44;69.58;101104.00;5014907;28;20058;-85
2023/03/28 08:29:47;;;;;;;10.68;2.95;;;;;;;4.47;69.53;101111.75;5019207;28;20056;-85
2023/03/28 08:32:14;;;;;;;9.40;2.40;;;;;;;4.48;69.41;101113.47;5001664;28;20060;-85
2023/03/28 08:34:41;;;;;;;10.65;2.60;;;;;;;4.54;69.49;101104.47;5035434;28;20048;-85
2023/03/28 08:37:13;;;;;;;12.93;2.42;;;;;;;4.60;69.39;101103.34;5010577;28;20050;-85
2023/03/28 08:39:43;;;;;;;9.85;2.22;;;;;;;4.63;68.81;101101.44;4997937;28;20057;-85
2023/03/28 08:42:35;;;;;;;14.90;3.67;;;;;;;4.61;66.86;101100.66;4985574;28;20125;-84
2023/03/28 08:45:10;;;;;;;8.63;2.70;;;;;;;4.69;67.88;101102.94;4995621;28;20128;-85
2023/03/28 08:47:46;;;;;;;8.73;1.63;;;;;;;4.74;66.43;101112.34;5004375;28;20775;-85
2023/03/28 08:50:27;;;;;;;12.13;2.17;;;;;;;4.71;65.01;101109.84;5035707;28;20364;-85
2023/03/28 08:52:54;;;;;;;11.13;2.65;;;;;;;4.80;66.67;101108.59;5018828;28;20115;-85
2023/03/28 08:55:37;;;;;;;8.90;2.30;;;;;;;4.82;65.58;101116.41;4988756;28;20057;-85
2023/03/28 08:58:05;;;;;;;8.88;1.70;;;;;;;4.89;66.11;101107.34;5013792;28;20053;-85
2023/03/28 09:00:35;;;;;;;8.13;1.98;;;;;;;4.93;66.64;101103.63;4986782;28;20394;-85
2023/03/28 09:03:13;;;;;;;13.15;2.30;;;;;;;4.95;66.09;101114.94;5004376;28;20046;-83
2023/03/28 09:06:02;;;;;;;8.48;1.70;;;;;;;5.00;64.69;101115.59;4985157;28;20137;-84
2023/03/28 09:08:54;;;;;;;9.20;1.52;;;;;;;4.99;63.01;101108.63;4999379;28;20506;-84
2023/03/28 09:11:36;;;;;;;2.97;1.20;;;;;;;5.03;64.75;101118.09;4999690;28;20632;-82
2023/03/28 09:14:23;;;;;;;8.95;1.70;;;;;;;5.05;63.74;101113.63;4964265;28;20046;-82
2023/03/28 09:17:02;;;;;;;6.32;1.83;;;;;;;5.14;65.11;101114.97;5002098;28;20038;-83
2023/03/28 09:19:48;;;;;;;6.78;1.80;;;;;;;5.12;63.66;101107.16;4999054;28;20042;-82
2023/03/28 09:23:02;;;;;;;6.68;2.05;;;;;;;5.18;64.50;101106.84;5012443;28;20064;-82
2023/03/28 09:25:51;;;;;;;12.38;1.92;;;;;;;5.12;63.25;101101.88;5003620;28;20401;-83
2023/03/28 09:28:34;;;;;;;4.18;1.02;;;;;;;5.14;63.23;101115.84;4977242;28;20401;-83
2023/03/28 09:31:04;;;;;;;6.18;1.33;;;;;;;5.19;63.11;101110.34;5000293;28;20128;-83
2023/03/28 09:33:37;;;;;;;5.47;1.45;;;;;;;5.20;61.32;101098.91;4971969;28;20143;-83
2023/03/28 09:36:27;;;;;;;6.63;1.65;;;;;;;5.18;60.77;101095.47;5023247;28;20064;-84
2023/03/28 09:39:35;;;;;;;4.82;1.48;;;;;;;5.20;59.81;101091.00;5001510;28;20444;-84
2023/03/28 09:42:11;;;;;;;3.33;1.60;;;;;;;5.27;61.56;101097.69;4997209;28;20550;-84
2023/03/28 09:44:54;;;;;;;4.82;1.17;;;;;;;5.30;61.24;101097.56;5019239;28;20172;-83
2023/03/28 09:47:56;;;;;;;6.80;1.42;;;;;;;5.33;60.93;101096.56;4869412;28;20070;-84
2023/03/28 09:50:26;;;;;;;5.43;1.70;;;;;;;5.36;61.37;101094.63;5002159;28;20096;-84
2023/03/28 09:52:57;;;;;;;4.90;1.98;;;;;;;5.38;61.34;101095.41;5018383;28;20129;-84
2023/03/28 09:55:26;;;;;;;3.15;1.02;;;;;;;5.40;60.89;101088.28;4985677;28;20128;-84
2023/03/28 09:58:08;;;;;;;5.25;1.25;;;;;;;5.40;58.14;101092.72;5008389;28;20073;-84
2023/03/28 10:01:11;;;;;;;3.17;1.10;;;;;;;5.39;57.64;101083.97;4943313;28;20038;-84
2023/03/28 10:04:18;;;;;;;2.72;1.00;;;;;;;5.39;57.47;101083.09;4982693;28;20042;-83
2023/03/28 10:07:08;;;;;;;2.80;1.05;;;;;;;5.40;53.96;101077.75;5031843;28;20049;-84
2023/03/28 10:09:49;;;;;;;4.95;1.00;;;;;;;5.41;57.32;101068.06;5021126;28;20466;-84
2023/03/28 10:12:36;;;;;;;7.07;1.42;;;;;;;5.40;56.27;101077.75;5006138;28;20053;-84
2023/03/28 10:15:06;;;;;;;1.70;1.10;;;;;;;5.49;59.16;101073.81;5028034;28;20050;-84
2023/03/28 10:18:05;;;;;;;4.38;1.20;;;;;;;5.42;51.52;101078.53;5043523;28;20049;-84
2023/03/28 10:20:37;;;;;;;4.35;1.10;;;;;;;5.45;54.22;101077.53;5023260;28;20049;-83
2023/03/28 10:23:05;;;;;;;2.60;1.00;;;;;;;5.48;53.57;101071.28;4978973;28;20042;-84
2023/03/28 10:25:42;;;;;;;4.07;1.13;;;;;;;5.42;55.03;101059.25;4993209;28;20512;-84
2023/03/28 10:28:27;;;;;;;10.05;1.20;;;;;;;5.43;54.44;101068.84;4998680;28;20049;-84
2023/03/28 10:30:56;;;;;;;9.90;2.13;;;;;;;5.53;56.65;101069.28;4972629;28;20053;-83
2023/03/28 10:33:34;;;;;;;6.90;1.77;;;;;;;5.55;55.71;101060.38;5003453;28;20044;-84
2023/03/28 10:36:30;;;;;;;2.65;1.05;;;;;;;5.58;54.50;101062.00;5026949;28;20065;-84
2023/03/28 10:38:59;;;;;;;5.53;1.40;;;;;;;5.69;56.88;101059.69;4965333;28;20045;-83
2023/03/28 10:41:59;;;;;;;6.63;2.13;;;;;;;5.71;56.08;101059.63;5014710;28;20053;-83
2023/03/28 10:44:42;;;;;;;6.28;1.25;;;;;;;5.77;57.08;101049.63;4967396;28;20091;-83
2023/03/28 10:47:15;;;;;;;17.23;2.25;;;;;;;5.93;60.48;101051.50;5043218;28;20042;-84
2023/03/28 10:49:53;;;;;;;9.52;2.00;;;;;;;5.97;58.79;101053.97;4958812;28;20448;-85
2023/03/28 10:52:47;;;;;;;9.82;1.88;;;;;;;5.85;52.13;101058.03;4970789;28;20070;-85
2023/03/28 10:55:23;;;;;;;3.17;1.38;;;;;;;5.86;55.44;101045.72;4921927;28;20073;-84
2023/03/28 10:58:30;;;;;;;4.00;1.15;;;;;;;5.84;55.45;101056.31;5033182;28;20140;-84
2023/03/28 11:01:07;;;;;;;4.43;1.55;;;;;;;5.87;56.05;101050.88;4983785;28;20469;-84
2023/03/28 11:04:13;;;;;;;4.75;1.60;;;;;;;5.88;55.47;101059.66;5029976;28;20048;-84
2023/03/28 11:06:51;;;;;;;3.30;1.50;;;;;;;5.92;54.88;101053.28;4998086;28;20120;-84
2023/03/28 11:09:54;;;;;;;5.50;1.75;;;;;;;5.99;55.72;101053.88;5010337;28;20116;-84
2023/03/28 11:12:47;;;;;;;7.53;1.80;;;;;;;6.08;57.33;101049.00;4973929;28;20135;-84
2023/03/28 11:15:36;;;;;;;3.95;1.58;;;;;;;6.12;55.47;101051.50;4949203;28;20405;-84
2023/03/28 11:18:35;;;;;;;5.93;1.30;;;;;;;6.13;55.39;101051.44;4983510;28;20050;-84
2023/03/28 11:21:30;;;;;;;3.03;1.45;;;;;;;6.16;54.90;101043.34;5012565;28;20050;-84
2023/03/28 11:24:15;;;;;;;6.18;1.55;;;;;;;6.21;56.46;101043.13;5012896;28;20519;-84
2023/03/28 11:27:07;;;;;;;4.85;1.42;;;;;;;6.21;56.47;101032.56;4962329;28;20048;-84
2023/03/28 11:30:08;;;;;;;13.88;1.33;;;;;;;6.25;56.15;101031.47;4996313;28;20041;-84
2023/03/28 11:32:47;;;;;;;6.78;1.48;;;;;;;6.32;56.34;101034.66;4995611;28;20050;-84
2023/03/28 11:35:38;;;;;;;8.55;1.88;;;;;;;6.27;54.34;101019.91;4990446;28;20112;-84
2023/03/28 11:38:21;;;;;;;7.85;1.70;;;;;;;6.29;54.04;101023.31;4980558;28;20050;-85
2023/03/28 11:40:51;;;;;;;8.10;2.10;;;;;;;6.32;52.95;101013.56;5019725;28;20570;-84
2023/03/28 11:43:32;;;;;;;3.92;1.13;;;;;;;6.24;54.58;101013.94;5031673;28;20049;-84
2023/03/28 11:46:04;;;;;;;9.15;2.10;;;;;;;6.28;53.82;101015.47;5021288;28;20053;-84
2023/03/28 11:48:37;;;;;;;3.03;1.67;;;;;;;6.28;53.90;101003.16;5036967;28;20042;-85
2023/03/28 11:51:18;;;;;;;9.48;1.80;;;;;;;6.22;54.13;101000.81;5034894;28;20046;-84
2023/03/28 11:54:12;;;;;;;5.38;1.60;;;;;;;6.26;54.86;100991.00;5016585;28;20049;-85
2023/03/28 11:56:49;;;;;;;4.38;1.30;;;;;;;6.31;54.62;100986.31;4956659;28;20069;-84
2023/03/28 11:59:35;;;;;;;5.32;1.60;;;;;;;6.36;54.44;100991.34;5035430;28;20365;-84
2023/03/28 12:02:28;;;;;;;4.50;1.90;;;;;;;6.36;53.67;100981.66;5003611;28;20444;-84
2023/03/28 12:05:17;;;;;;;12.57;2.10;;;;;;;6.41;53.92;100981.41;4954905;28;20076;-84
2023/03/28 12:07:51;;;;;;;6.45;1.55;;;;;;;6.48;55.14;100986.25;4981858;28;20493;-84
2023/03/28 12:10:35;;;;;;;4.05;2.00;;;;;;;6.51;54.06;100974.69;5008121;28;20057;-84
2023/03/28 12:13:27;;;;;;;4.28;1.90;;;;;;;6.58;55.42;100975.22;4973749;28;20803;-84
2023/03/28 12:16:05;;;;;;;5.95;1.90;;;;;;;6.62;55.69;100972.34;4971269;28;20404;-84
2023/03/28 12:18:43;;;;;;;5.85;1.40;;;;;;;6.68;55.13;100968.53;5002509;28;20048;-84